createdAt,value
2018-02-02T00:01:21.352Z,2.28
2018-02-02T00:03:49.408Z,1.90
2018-02-02T00:06:17.433Z,2.35
2018-02-02T00:08:45.478Z,2.50
2018-02-02T00:11:13.508Z,2.00
2018-02-02T00:13:41.552Z,2.47
2018-02-02T00:16:09.613Z,2.62
2018-02-02T00:18:37.656Z,1.70
2018-02-02T00:21:05.696Z,2.10
2018-02-02T00:23:33.747Z,1.52
2018-02-02T00:26:02.536Z,1.60
2018-02-02T00:28:32.098Z,1.90
2018-02-02T00:31:00.136Z,2.30
2018-02-02T00:33:28.168Z,2.15
2018-02-02T00:35:56.204Z,1.62
2018-02-02T00:38:24.224Z,1.85
2018-02-02T00:40:52.273Z,2.08
2018-02-02T00:43:20.311Z,2.17
2018-02-02T00:45:48.344Z,2.47
2018-02-02T00:48:16.392Z,2.40
2018-02-02T00:50:49.951Z,2.30
2018-02-02T00:53:18.772Z,2.22
2018-02-02T00:55:46.804Z,2.33
2018-02-02T00:58:14.856Z,1.77
2018-02-02T01:00:42.905Z,2.03
2018-02-02T01:03:11.704Z,2.58
2018-02-02T01:05:40.532Z,2.28
2018-02-02T01:08:08.572Z,2.40
2018-02-02T01:10:36.636Z,2.20
2018-02-02T01:13:04.689Z,2.40
2018-02-02T01:15:32.720Z,2.50
2018-02-02T01:18:00.765Z,2.45
2018-02-02T01:20:28.792Z,2.80
2018-02-02T01:22:56.837Z,2.78
2018-02-02T01:25:24.888Z,2.85
2018-02-02T01:27:53.684Z,2.90
2018-02-02T01:30:22.500Z,2.50
2018-02-02T01:32:50.533Z,2.90
2018-02-02T01:35:18.519Z,3.70
2018-02-02T01:37:46.509Z,3.35
2018-02-02T01:40:14.504Z,3.10
2018-02-02T01:42:43.292Z,2.65
2018-02-02T01:45:11.296Z,3.03
2018-02-02T01:47:40.080Z,3.08
2018-02-02T01:50:08.068Z,2.72
2018-02-02T01:52:36.848Z,3.20
2018-02-02T01:55:04.838Z,3.08
2018-02-02T01:57:32.863Z,4.57
2018-02-02T02:00:00.860Z,3.87
2018-02-02T02:02:28.852Z,3.30
2018-02-02T02:04:56.848Z,3.30
2018-02-02T02:07:24.839Z,3.22
2018-02-02T02:09:52.828Z,3.65
2018-02-02T02:12:20.837Z,3.42
2018-02-02T02:14:49.587Z,3.10
2018-02-02T02:17:17.576Z,3.25
2018-02-02T02:19:45.575Z,3.30
2018-02-02T02:22:13.576Z,3.08
2018-02-02T02:24:42.343Z,3.28
2018-02-02T02:27:10.353Z,3.85
2018-02-02T02:29:39.133Z,2.70
2018-02-02T02:32:07.121Z,3.15
2018-02-02T02:34:35.132Z,3.03
2018-02-02T02:37:03.913Z,4.15
2018-02-02T02:39:31.903Z,3.72
2018-02-02T02:42:00.672Z,3.80
2018-02-02T02:44:28.683Z,5.07
2018-02-02T02:46:56.656Z,4.55
2018-02-02T02:49:24.662Z,4.60
2018-02-02T02:51:53.415Z,5.05
2018-02-02T02:54:21.400Z,5.37
2018-02-02T02:56:49.413Z,4.10
2018-02-02T02:59:17.412Z,4.20
2018-02-02T03:01:46.168Z,4.57
2018-02-02T03:04:14.168Z,4.15
2018-02-02T03:06:42.192Z,4.25
2018-02-02T03:09:10.179Z,3.80
2018-02-02T03:11:38.188Z,3.75
2018-02-02T03:14:06.194Z,4.32
2018-02-02T03:16:34.176Z,4.57
2018-02-02T03:19:02.183Z,4.72
2018-02-02T03:21:30.944Z,4.62
2018-02-02T03:23:58.924Z,4.22
2018-02-02T03:26:26.928Z,3.72
2018-02-02T03:28:55.395Z,4.72
2018-02-02T03:31:23.368Z,4.35
2018-02-02T03:33:51.365Z,3.58
2018-02-02T03:36:19.373Z,4.70
2018-02-02T03:38:47.351Z,3.62
2018-02-02T03:41:15.355Z,3.87
2018-02-02T03:43:44.111Z,4.25
2018-02-02T03:46:12.110Z,4.65
2018-02-02T03:48:40.112Z,3.37
2018-02-02T03:51:08.879Z,3.60
2018-02-02T03:53:36.881Z,4.20
2018-02-02T03:56:04.863Z,4.35
2018-02-02T03:58:32.868Z,3.92
2018-02-02T04:01:01.631Z,4.75
2018-02-02T04:03:29.636Z,4.85
2018-02-02T04:05:57.639Z,4.18
2018-02-02T04:08:26.389Z,5.62
2018-02-02T04:10:54.383Z,4.70
2018-02-02T04:13:22.388Z,4.65
2018-02-02T04:15:50.381Z,4.62
2018-02-02T04:18:19.151Z,4.95
2018-02-02T04:20:47.156Z,4.28
2018-02-02T04:23:15.911Z,4.47
2018-02-02T04:25:43.907Z,4.45
2018-02-02T04:28:11.918Z,3.45
2018-02-02T04:30:39.907Z,4.05
2018-02-02T04:33:08.707Z,3.95
2018-02-02T04:35:38.304Z,4.03
2018-02-02T04:38:06.292Z,3.75
2018-02-02T04:40:34.293Z,3.72
2018-02-02T04:43:03.064Z,3.28
2018-02-02T04:45:31.049Z,4.47
2018-02-02T04:47:59.060Z,4.25
2018-02-02T04:50:27.823Z,4.50
2018-02-02T04:52:55.815Z,4.45
2018-02-02T04:55:23.836Z,3.55
2018-02-02T04:57:52.596Z,4.75
2018-02-02T05:00:20.585Z,3.95
2018-02-02T05:02:48.588Z,4.15
2018-02-02T05:05:16.579Z,4.60
2018-02-02T05:07:45.332Z,3.97
2018-02-02T05:10:13.328Z,4.95
2018-02-02T05:12:41.352Z,3.72
2018-02-02T05:15:10.115Z,4.95
2018-02-02T05:17:38.120Z,4.72
2018-02-02T05:20:06.900Z,4.57
2018-02-02T05:22:34.885Z,4.57
2018-02-02T05:25:02.938Z,4.45
2018-02-02T05:27:31.655Z,6.03
2018-02-02T05:29:59.660Z,5.20
2018-02-02T05:32:27.647Z,3.75
2018-02-02T05:34:56.412Z,4.60
2018-02-02T05:37:24.403Z,5.20
2018-02-02T05:39:52.403Z,4.68
2018-02-02T05:42:20.405Z,5.40
2018-02-02T05:44:49.151Z,5.20
2018-02-02T05:47:17.143Z,5.62
2018-02-02T05:49:45.164Z,5.20
2018-02-02T05:52:13.920Z,4.93
2018-02-02T05:54:41.925Z,5.40
2018-02-02T05:57:09.932Z,4.47
2018-02-02T05:59:38.704Z,4.90
2018-02-02T06:02:06.704Z,4.60
2018-02-02T06:04:34.707Z,5.30
2018-02-02T06:07:03.455Z,4.62
2018-02-02T06:09:31.460Z,4.40
2018-02-02T06:11:59.468Z,4.53
2018-02-02T06:14:28.228Z,5.25
2018-02-02T06:16:56.238Z,4.80
2018-02-02T06:19:36.097Z,4.37
2018-02-02T06:22:04.076Z,5.72
2018-02-02T06:24:32.996Z,5.57
2018-02-02T06:27:01.766Z,7.37
2018-02-02T06:29:29.767Z,6.40
2018-02-02T06:31:57.767Z,5.43
2018-02-02T06:34:26.523Z,7.00
2018-02-02T06:37:00.256Z,5.37
2018-02-02T06:39:28.247Z,5.28
2018-02-02T06:41:57.005Z,5.60
2018-02-02T06:44:25.017Z,5.43
2018-02-02T06:46:53.004Z,6.60
2018-02-02T06:49:20.992Z,6.87
2018-02-02T06:51:50.495Z,5.18
2018-02-02T06:54:18.504Z,6.50
2018-02-02T06:56:47.265Z,5.43
2018-02-02T06:59:15.265Z,5.00
2018-02-02T07:01:43.268Z,5.10
2018-02-02T07:04:11.264Z,5.22
2018-02-02T07:06:40.032Z,4.35
2018-02-02T07:09:08.040Z,5.12
2018-02-02T07:11:36.793Z,5.12
2018-02-02T07:14:04.795Z,4.45
2018-02-02T07:16:32.797Z,5.10
2018-02-02T07:19:00.783Z,6.55
2018-02-02T07:21:29.543Z,6.72
2018-02-02T07:23:57.552Z,6.50
2018-02-02T07:26:25.535Z,5.85
2018-02-02T07:28:53.539Z,5.90
2018-02-02T07:31:22.312Z,5.82
2018-02-02T07:33:50.300Z,6.32
2018-02-02T07:36:18.309Z,4.75
2018-02-02T07:38:47.071Z,5.85
2018-02-02T07:41:15.074Z,5.90
2018-02-02T07:43:43.084Z,5.75
2018-02-02T07:46:11.852Z,6.07
2018-02-02T07:48:39.848Z,6.03
2018-02-02T07:51:08.632Z,6.07
2018-02-02T07:53:36.618Z,5.45
2018-02-02T07:56:04.620Z,5.05
2018-02-02T07:58:33.384Z,5.72
2018-02-02T08:01:07.100Z,4.95
2018-02-02T08:03:35.103Z,4.55
2018-02-02T08:06:03.112Z,5.25
2018-02-02T08:08:31.111Z,4.30
2018-02-02T08:10:59.109Z,4.80
2018-02-02T08:13:27.108Z,4.45
2018-02-02T08:15:55.093Z,4.57
2018-02-02T08:18:23.100Z,3.65
2018-02-02T08:20:51.137Z,4.78
2018-02-02T08:23:19.856Z,4.57
2018-02-02T08:25:47.856Z,5.60
2018-02-02T08:28:15.856Z,5.18
2018-02-02T08:30:44.610Z,3.95
2018-02-02T08:33:12.612Z,3.80
2018-02-02T08:35:40.615Z,3.15
2018-02-02T08:38:08.619Z,3.90
2018-02-02T08:40:37.380Z,4.95
2018-02-02T08:43:05.416Z,4.10
2018-02-02T08:45:33.371Z,3.90
2018-02-02T08:48:02.171Z,4.12
2018-02-02T08:50:30.144Z,3.78
2018-02-02T08:52:58.131Z,3.70
2018-02-02T08:55:26.130Z,3.67
2018-02-02T08:57:54.904Z,3.92
2018-02-02T09:00:22.892Z,3.28
2018-02-02T09:02:50.892Z,3.37
2018-02-02T09:05:19.660Z,3.10
2018-02-02T09:07:47.647Z,2.50
2018-02-02T09:10:15.658Z,2.72
2018-02-02T09:12:44.432Z,2.53
2018-02-02T09:15:12.419Z,3.30
2018-02-02T09:17:41.932Z,2.45
2018-02-02T09:20:09.935Z,1.98
2018-02-02T09:22:38.700Z,2.55
2018-02-02T09:25:06.701Z,2.17
2018-02-02T09:27:34.216Z,2.58
2018-02-02T09:30:02.203Z,2.10
2018-02-02T09:32:30.212Z,1.90
2018-02-02T09:34:58.216Z,2.35
2018-02-02T09:37:26.207Z,2.65
2018-02-02T09:39:54.208Z,2.35
2018-02-02T09:42:22.972Z,2.37
2018-02-02T09:44:51.017Z,2.92
2018-02-02T09:47:19.754Z,2.08
2018-02-02T09:49:47.752Z,2.22
2018-02-02T09:52:15.739Z,2.75
2018-02-02T09:54:43.736Z,2.60
2018-02-02T09:57:12.511Z,2.58
2018-02-02T09:59:40.521Z,2.47
2018-02-02T10:02:09.304Z,1.92
2018-02-02T10:04:37.321Z,4.72
2018-02-02T10:07:05.308Z,1.45
2018-02-02T10:09:33.316Z,2.30
2018-02-02T10:12:01.316Z,1.83
2018-02-02T10:14:29.299Z,1.60
2018-02-02T10:16:57.303Z,1.70
2018-02-02T10:19:25.304Z,1.75
2018-02-02T10:21:54.061Z,2.22
2018-02-02T10:24:22.052Z,2.25
2018-02-02T10:26:50.061Z,1.65
2018-02-02T10:29:18.809Z,1.90
2018-02-02T10:31:46.810Z,1.75
2018-02-02T10:34:14.809Z,2.45
2018-02-02T10:36:42.828Z,1.50
2018-02-02T10:39:10.831Z,1.70
2018-02-02T10:41:38.867Z,1.50
2018-02-02T10:44:06.865Z,2.10
2018-02-02T10:46:35.624Z,1.87
2018-02-02T10:49:03.631Z,1.77
2018-02-02T10:51:31.615Z,1.25
2018-02-02T10:54:00.389Z,1.75
2018-02-02T10:56:28.392Z,1.50
2018-02-02T10:58:56.381Z,1.42
2018-02-02T11:01:30.143Z,4.78
2018-02-02T11:04:08.960Z,1.40
2018-02-02T11:06:36.962Z,1.85
2018-02-02T11:09:04.964Z,1.75
2018-02-02T11:11:32.963Z,1.52
2018-02-02T11:14:00.965Z,1.80
2018-02-02T11:16:28.976Z,1.45
2018-02-02T11:18:56.968Z,1.30
2018-02-02T11:21:25.025Z,1.37
2018-02-02T11:23:53.028Z,1.00
2018-02-02T11:26:21.033Z,1.35
2018-02-02T11:28:49.032Z,3.22
2018-02-02T11:31:17.044Z,1.65
2018-02-02T11:33:45.020Z,1.30
2018-02-02T11:36:13.036Z,1.20
2018-02-02T11:38:41.048Z,1.58
2018-02-02T11:41:09.052Z,1.35
2018-02-02T11:43:37.093Z,1.67
2018-02-02T11:46:05.104Z,1.00
2018-02-02T11:48:33.091Z,2.03
2018-02-02T11:51:01.096Z,1.40
2018-02-02T11:53:29.101Z,1.15
2018-02-02T11:55:57.855Z,2.12
2018-02-02T11:58:25.857Z,1.60
2018-02-02T12:00:53.856Z,1.37
2018-02-02T12:03:22.617Z,1.08
2018-02-02T12:05:50.616Z,1.17
2018-02-02T12:08:18.616Z,1.30
2018-02-02T12:10:46.608Z,1.40
2018-02-02T12:13:16.103Z,1.30
2018-02-02T12:15:44.148Z,1.40
2018-02-02T12:18:12.140Z,0.90
2018-02-02T12:20:40.152Z,1.33
2018-02-02T12:23:13.852Z,1.05
2018-02-02T12:39:16.017Z,1.25
2018-02-02T12:41:44.037Z,1.87
2018-02-02T12:44:12.783Z,1.80
2018-02-02T12:46:40.796Z,1.50
2018-02-02T12:49:08.853Z,1.90
2018-02-02T12:51:36.822Z,2.60
2018-02-02T12:54:04.817Z,1.95
2018-02-02T12:56:32.815Z,1.12
2018-02-02T12:59:00.800Z,1.30
2018-02-02T13:01:28.816Z,1.55
2018-02-02T13:03:56.826Z,1.80
2018-02-02T13:06:24.805Z,1.87
2018-02-02T13:08:52.801Z,1.40
2018-02-02T13:11:20.808Z,1.37
2018-02-02T13:13:48.795Z,1.30
2018-02-02T13:16:16.803Z,1.80
2018-02-02T13:18:44.816Z,1.05
2018-02-02T13:21:12.830Z,4.12
2018-02-02T13:23:40.854Z,1.20
2018-02-02T13:26:09.636Z,1.30
2018-02-02T13:28:37.612Z,1.60
2018-02-02T13:31:05.612Z,1.98
2018-02-02T13:33:34.385Z,1.30
2018-02-02T13:36:02.373Z,1.40
2018-02-02T13:38:30.376Z,1.37
2018-02-02T13:40:59.141Z,1.70
2018-02-02T13:43:27.135Z,2.42
2018-02-02T13:45:55.153Z,1.77
2018-02-02T13:48:23.918Z,1.87
2018-02-02T13:50:51.904Z,1.95
2018-02-02T13:53:19.914Z,1.98
2018-02-02T13:55:49.156Z,1.92
2018-02-02T13:58:17.884Z,2.22
2018-02-02T14:00:45.963Z,1.37
2018-02-02T14:03:13.991Z,1.83
2018-02-02T14:05:42.752Z,1.58
2018-02-02T14:08:10.755Z,2.10
2018-02-02T14:10:38.752Z,2.10
2018-02-02T14:13:07.567Z,1.70
2018-02-02T14:15:35.516Z,1.80
2018-02-02T14:18:03.522Z,1.45
2018-02-02T14:20:32.284Z,2.12
2018-02-02T14:23:00.327Z,2.20
2018-02-02T14:25:28.335Z,1.45
2018-02-02T14:27:56.332Z,2.00
2018-02-02T14:30:24.332Z,2.12
2018-02-02T14:32:53.848Z,1.60
2018-02-02T14:35:21.844Z,2.53
2018-02-02T14:37:49.889Z,1.50
2018-02-02T14:40:17.891Z,2.47
2018-02-02T14:42:46.640Z,1.75
2018-02-02T14:45:14.656Z,2.20
2018-02-02T14:47:42.684Z,1.70
2018-02-02T14:50:11.469Z,1.70
2018-02-02T14:52:39.488Z,2.10
2018-02-02T14:55:07.497Z,1.80
2018-02-02T14:57:35.479Z,2.35
2018-02-02T15:00:03.476Z,2.03
2018-02-02T15:02:31.481Z,2.30
2018-02-02T15:04:59.484Z,1.80
2018-02-02T15:07:27.483Z,2.90
2018-02-02T15:09:55.534Z,1.92
2018-02-02T15:12:23.486Z,2.35
2018-02-02T15:14:51.500Z,2.42
2018-02-02T15:17:19.501Z,2.33
2018-02-02T15:19:48.267Z,3.87
2018-02-02T15:25:14.664Z,1.95
2018-02-02T15:27:42.692Z,2.85
2018-02-02T15:30:10.693Z,2.97
2018-02-02T15:32:38.705Z,2.47
2018-02-02T15:35:06.699Z,2.17
2018-02-02T15:37:34.704Z,3.15
2018-02-02T15:40:03.459Z,2.45
2018-02-02T15:42:31.460Z,2.60
2018-02-02T15:44:59.457Z,2.75
2018-02-02T15:47:28.221Z,2.45
2018-02-02T15:49:56.228Z,2.20
2018-02-02T15:52:24.221Z,2.05
2018-02-02T15:54:52.992Z,2.12
2018-02-02T15:57:20.992Z,2.70
2018-02-02T15:59:48.996Z,2.03
2018-02-02T16:02:17.756Z,2.10
2018-02-02T16:04:45.796Z,1.85
2018-02-02T16:07:13.812Z,3.15
2018-02-02T16:09:41.797Z,1.87
2018-02-02T16:12:09.803Z,2.22
2018-02-02T16:14:37.823Z,2.42
2018-02-02T16:17:05.803Z,1.98
2018-02-02T16:19:33.812Z,1.92
2018-02-02T16:22:01.809Z,1.65
2018-02-02T16:24:29.797Z,2.30
2018-02-02T16:26:57.796Z,2.20
2018-02-02T16:29:25.844Z,1.80
2018-02-02T16:31:53.836Z,2.00
2018-02-02T16:34:21.844Z,1.70
2018-02-02T16:36:49.843Z,2.40
2018-02-02T16:39:18.595Z,3.55
2018-02-02T16:41:47.096Z,2.22
2018-02-02T16:44:15.148Z,2.10
2018-02-02T16:46:43.183Z,2.40
2018-02-02T16:49:11.148Z,2.28
2018-02-02T16:51:39.169Z,2.10
2018-02-02T16:54:07.932Z,2.70
2018-02-02T16:56:35.933Z,2.40
2018-02-02T16:59:03.931Z,2.60
2018-02-02T17:01:32.688Z,2.40
2018-02-02T17:04:00.695Z,1.85
2018-02-02T17:06:30.204Z,2.70
2018-02-02T17:08:58.524Z,2.40
2018-02-02T17:11:27.296Z,2.03
2018-02-02T17:13:55.295Z,1.65
2018-02-02T17:16:23.287Z,2.53
2018-02-02T17:18:51.276Z,2.45
2018-02-02T17:21:20.048Z,2.03
2018-02-02T17:23:48.035Z,1.77
2018-02-02T17:26:16.036Z,2.33
2018-02-02T17:28:44.093Z,2.30
2018-02-02T17:31:12.063Z,2.60
2018-02-02T17:33:40.070Z,3.00
2018-02-02T17:36:08.109Z,2.47
2018-02-02T17:38:36.124Z,2.33
2018-02-02T17:41:04.128Z,2.30
2018-02-02T17:43:32.127Z,2.30
2018-02-02T17:46:00.888Z,3.35
2018-02-02T17:48:28.892Z,3.55
2018-02-02T17:50:56.901Z,2.40
2018-02-02T17:53:25.660Z,1.90
2018-02-02T17:55:53.676Z,2.25
2018-02-02T17:58:22.444Z,2.40
2018-02-02T18:00:56.044Z,1.90
2018-02-02T18:03:24.040Z,2.70
2018-02-02T18:05:52.036Z,2.10
2018-02-02T18:08:20.040Z,2.05
2018-02-02T18:10:48.804Z,3.08
2018-02-02T18:13:16.792Z,2.80
2018-02-02T18:15:44.809Z,2.60
2018-02-02T18:18:13.588Z,2.70
2018-02-02T18:20:41.587Z,2.53
2018-02-02T18:23:10.388Z,3.22
2018-02-02T18:25:39.164Z,2.20
2018-02-02T18:28:07.164Z,2.40
2018-02-02T18:30:35.928Z,2.90
2018-02-02T18:33:03.927Z,2.10
2018-02-02T18:35:31.963Z,2.08
2018-02-02T18:38:00.373Z,2.70
2018-02-02T18:40:28.372Z,2.25
2018-02-02T18:42:56.396Z,2.17
2018-02-02T18:45:24.404Z,2.05
2018-02-02T18:47:52.404Z,2.05
2018-02-02T18:50:20.385Z,2.12
2018-02-02T18:52:48.380Z,2.45
2018-02-02T18:55:16.384Z,1.90
2018-02-02T18:57:44.371Z,2.53
2018-02-02T19:00:12.390Z,2.25
2018-02-02T19:02:40.395Z,2.03
2018-02-02T19:05:08.460Z,2.50
2018-02-02T19:07:36.684Z,2.20
2018-02-02T19:10:04.690Z,2.53
2018-02-02T19:12:32.675Z,3.12
2018-02-02T19:15:00.684Z,2.37
2018-02-02T19:17:29.441Z,2.40
2018-02-02T19:19:57.424Z,2.67
2018-02-02T19:22:25.427Z,2.53
2018-02-02T19:24:53.432Z,2.15
2018-02-02T19:27:21.420Z,2.35
2018-02-02T19:29:49.420Z,2.60
2018-02-02T19:32:17.422Z,2.53
2018-02-02T19:34:45.421Z,2.22
2018-02-02T19:37:13.428Z,2.90
2018-02-02T19:39:42.195Z,2.53
2018-02-02T19:42:10.207Z,2.47
2018-02-02T19:44:38.208Z,2.80
2018-02-02T19:47:07.019Z,3.22
2018-02-02T19:49:35.797Z,2.92
2018-02-02T19:52:03.800Z,3.00
2018-02-02T19:54:32.564Z,3.50
2018-02-02T19:57:02.836Z,4.45
2018-02-02T19:59:30.831Z,5.07
2018-02-02T20:01:58.836Z,3.05
2018-02-02T20:04:26.858Z,3.22
2018-02-02T20:06:54.857Z,3.08
2018-02-02T20:09:23.629Z,3.62
2018-02-02T20:11:51.624Z,2.67
2018-02-02T20:14:19.623Z,3.20
2018-02-02T20:16:48.388Z,3.40
2018-02-02T20:19:16.394Z,3.37
2018-02-02T20:21:44.395Z,2.90
2018-02-02T20:24:13.164Z,3.45
2018-02-02T20:26:41.165Z,3.28
2018-02-02T20:29:09.961Z,3.22
2018-02-02T20:31:38.728Z,3.15
2018-02-02T20:34:06.721Z,3.42
2018-02-02T20:36:34.713Z,3.37
2018-02-02T20:39:02.723Z,3.65
2018-02-02T20:41:31.476Z,3.20
2018-02-02T20:43:59.480Z,3.37
2018-02-02T20:46:27.480Z,4.53
2018-02-02T20:48:56.228Z,4.30
2018-02-02T20:51:24.232Z,3.05
2018-02-02T20:53:52.240Z,3.47
2018-02-02T20:56:20.996Z,3.55
2018-02-02T20:58:48.997Z,4.68
2018-02-02T21:01:16.992Z,4.18
2018-02-02T21:03:45.000Z,4.65
2018-02-02T21:06:13.776Z,4.00
2018-02-02T21:08:41.791Z,4.05
2018-02-02T21:11:10.544Z,4.30
2018-02-02T21:13:38.564Z,4.65
2018-02-02T21:16:07.744Z,3.22
2018-02-02T21:18:35.719Z,3.55
2018-02-02T21:21:03.720Z,4.45
2018-02-02T21:23:31.732Z,4.55
2018-02-02T21:25:59.719Z,4.57
2018-02-02T21:28:27.720Z,3.50
2018-02-02T21:30:55.731Z,3.40
2018-02-02T21:33:23.727Z,3.60
2018-02-02T21:35:51.719Z,3.80
2018-02-02T21:38:19.724Z,3.62
2018-02-02T21:40:48.476Z,3.53
2018-02-02T21:43:16.485Z,3.83
2018-02-02T21:45:44.479Z,4.00
2018-02-02T21:48:13.236Z,4.78
2018-02-02T21:50:41.238Z,4.57
2018-02-02T21:53:09.245Z,3.67
2018-02-02T21:55:38.006Z,4.95
2018-02-02T21:58:05.996Z,4.57
2018-02-02T22:00:34.004Z,4.35
2018-02-02T22:03:01.984Z,4.28
2018-02-02T22:05:30.764Z,4.43
2018-02-02T22:07:58.752Z,5.37
2018-02-02T22:10:26.748Z,5.45
2018-02-02T22:12:54.749Z,4.10
2018-02-02T22:15:23.508Z,4.93
2018-02-02T22:17:51.499Z,3.92
2018-02-02T22:20:19.508Z,4.82
2018-02-02T22:22:48.279Z,4.90
2018-02-02T22:25:16.264Z,5.65
2018-02-02T22:27:44.268Z,4.70
2018-02-02T22:30:13.028Z,5.70
2018-02-02T22:32:41.023Z,5.00
2018-02-02T22:35:09.060Z,5.15
2018-02-02T22:37:37.064Z,5.30
2018-02-02T22:40:05.040Z,5.10
2018-02-02T22:42:33.056Z,5.60
2018-02-02T22:45:01.057Z,4.75
2018-02-02T22:47:29.049Z,4.68
2018-02-02T22:49:57.807Z,5.15
2018-02-02T22:52:25.803Z,5.53
2018-02-02T22:54:53.799Z,4.65
2018-02-02T22:57:21.805Z,6.32
2018-02-02T22:59:50.580Z,5.20
2018-02-02T23:02:18.555Z,4.97
2018-02-02T23:04:46.554Z,4.82
2018-02-02T23:07:14.555Z,5.22
2018-02-02T23:09:43.304Z,5.25
2018-02-02T23:12:11.317Z,4.35
2018-02-02T23:14:39.318Z,5.70
2018-02-02T23:17:08.067Z,4.97
2018-02-02T23:19:36.068Z,5.60
2018-02-02T23:22:04.064Z,5.55
2018-02-02T23:24:32.060Z,4.97
2018-02-02T23:27:00.825Z,5.53
2018-02-02T23:29:29.052Z,4.70
2018-02-02T23:31:57.808Z,4.97
2018-02-02T23:34:25.812Z,4.50
2018-02-02T23:36:54.383Z,4.85
2018-02-02T23:39:22.379Z,6.60
2018-02-02T23:41:50.392Z,5.72
2018-02-02T23:44:19.159Z,4.78
2018-02-02T23:46:47.139Z,4.68
2018-02-02T23:49:15.152Z,5.22
2018-02-02T23:51:43.933Z,6.93
2018-02-02T23:54:11.942Z,4.20
2018-02-02T23:56:39.928Z,4.57
2018-02-02T23:59:08.710Z,4.12
